createdAt,value
2018-09-10T00:00:47.568Z,16.92
2018-09-10T00:03:50.836Z,16.80
2018-09-10T00:06:54.148Z,16.76
2018-09-10T00:09:57.290Z,16.64
2018-09-10T00:13:01.670Z,16.59
2018-09-10T00:16:04.955Z,16.49
2018-09-10T00:19:08.151Z,16.42
2018-09-10T00:22:11.504Z,16.38
2018-09-10T00:25:15.809Z,16.39
2018-09-10T00:28:19.084Z,16.37
2018-09-10T00:31:23.429Z,16.40
2018-09-10T00:34:26.703Z,16.39
2018-09-10T00:37:30.025Z,16.35
2018-09-10T00:40:33.420Z,16.33
2018-09-10T00:43:36.687Z,16.29
2018-09-10T00:46:40.099Z,16.28
2018-09-10T00:49:44.552Z,16.24
2018-09-10T00:52:47.684Z,16.21
2018-09-10T00:55:50.911Z,16.15
2018-09-10T00:58:54.283Z,16.09
2018-09-10T01:01:57.487Z,16.06
2018-09-10T01:05:00.751Z,16.01
2018-09-10T01:08:04.106Z,16.02
2018-09-10T01:11:07.243Z,15.91
2018-09-10T01:14:10.479Z,15.94
2018-09-10T01:17:14.848Z,15.96
2018-09-10T01:20:18.163Z,15.90
2018-09-10T01:23:21.524Z,15.86
2018-09-10T01:26:24.864Z,15.86
2018-09-10T01:29:28.093Z,15.79
2018-09-10T01:32:31.400Z,15.77
2018-09-10T01:35:34.684Z,15.75
2018-09-10T01:38:37.916Z,15.72
2018-09-10T01:41:41.183Z,15.72
2018-09-10T01:44:44.868Z,15.71
2018-09-10T01:47:48.060Z,15.73
2018-09-10T01:50:51.405Z,15.69
2018-09-10T01:53:54.669Z,15.64
2018-09-10T01:56:57.969Z,15.61
2018-09-10T02:00:01.239Z,15.62
2018-09-10T02:03:04.544Z,15.60
2018-09-10T02:06:07.795Z,15.52
2018-09-10T02:09:11.052Z,15.47
2018-09-10T02:12:19.817Z,15.40
2018-09-10T02:15:23.095Z,15.28
2018-09-10T02:18:26.470Z,15.17
2018-09-10T02:21:29.785Z,15.17
2018-09-10T02:24:32.987Z,15.16
2018-09-10T02:27:36.255Z,15.17
2018-09-10T02:30:39.482Z,15.17
2018-09-10T02:33:42.792Z,15.18
2018-09-10T02:36:47.007Z,15.14
2018-09-10T02:39:51.351Z,15.09
2018-09-10T02:42:54.769Z,15.09
2018-09-10T02:45:57.992Z,15.05
2018-09-10T02:49:01.209Z,15.06
2018-09-10T02:52:04.661Z,15.10
2018-09-10T02:55:08.959Z,15.01
2018-09-10T02:58:12.232Z,14.93
2018-09-10T03:01:16.588Z,14.95
2018-09-10T03:04:19.835Z,14.95
2018-09-10T03:07:23.147Z,14.97
2018-09-10T03:10:26.291Z,15.00
2018-09-10T03:13:29.633Z,14.96
2018-09-10T03:16:32.944Z,14.92
2018-09-10T03:19:36.275Z,14.91
2018-09-10T03:22:39.528Z,14.88
2018-09-10T03:25:42.704Z,14.89
2018-09-10T03:28:46.151Z,14.90
2018-09-10T03:31:49.400Z,14.88
2018-09-10T03:34:53.820Z,14.78
2018-09-10T03:37:57.042Z,14.74
2018-09-10T03:41:00.338Z,14.73
2018-09-10T03:44:03.615Z,14.76
2018-09-10T03:47:07.184Z,14.76
2018-09-10T03:50:10.428Z,14.76
2018-09-10T03:53:13.726Z,14.78
2018-09-10T03:56:18.058Z,14.81
2018-09-10T03:59:21.383Z,14.74
2018-09-10T04:02:24.639Z,14.68
2018-09-10T04:05:27.970Z,14.59
2018-09-10T04:08:31.240Z,14.60
2018-09-10T04:11:34.657Z,14.63
2018-09-10T04:14:37.987Z,14.60
2018-09-10T04:17:41.288Z,14.58
2018-09-10T04:20:45.074Z,14.52
2018-09-10T04:23:48.478Z,14.46
2018-09-10T04:26:51.997Z,14.34
2018-09-10T04:29:56.276Z,14.28
2018-09-10T04:32:59.456Z,14.26
2018-09-10T04:36:02.849Z,14.21
2018-09-10T04:39:07.547Z,14.21
2018-09-10T04:42:10.936Z,14.16
2018-09-10T04:45:14.220Z,14.14
2018-09-10T04:48:17.600Z,14.12
2018-09-10T04:51:21.370Z,14.14
2018-09-10T04:54:28.278Z,14.14
2018-09-10T04:57:31.551Z,14.15
2018-09-10T05:00:34.871Z,14.20
2018-09-10T05:03:38.051Z,14.14
2018-09-10T05:06:41.362Z,14.16
2018-09-10T05:09:44.544Z,14.17
2018-09-10T05:12:48.023Z,14.24
2018-09-10T05:15:51.254Z,14.21
2018-09-10T05:18:54.490Z,14.16
2018-09-10T05:21:57.901Z,14.13
2018-09-10T05:25:01.190Z,14.11
2018-09-10T05:28:04.499Z,14.24
2018-09-10T05:31:07.774Z,14.32
2018-09-10T05:34:11.084Z,14.34
2018-09-10T05:37:14.525Z,14.31
2018-09-10T05:40:17.994Z,14.37
2018-09-10T05:43:21.273Z,14.46
2018-09-10T05:46:24.572Z,14.61
2018-09-10T05:49:27.765Z,14.74
2018-09-10T05:52:31.079Z,14.81
2018-09-10T05:55:34.375Z,14.86
2018-09-10T05:58:37.755Z,14.92
2018-09-10T06:01:41.127Z,14.96
2018-09-10T06:04:44.649Z,15.08
2018-09-10T06:07:49.687Z,15.20
2018-09-10T06:10:52.988Z,15.35
2018-09-10T06:13:56.263Z,15.42
2018-09-10T06:16:59.674Z,15.52
2018-09-10T06:20:02.959Z,15.63
2018-09-10T06:23:06.291Z,15.77
2018-09-10T06:26:09.799Z,15.84
2018-09-10T06:29:13.078Z,15.97
2018-09-10T06:32:17.759Z,16.13
2018-09-10T06:35:21.003Z,16.27
2018-09-10T06:38:24.434Z,16.42
2018-09-10T06:41:27.681Z,16.56
2018-09-10T06:44:30.908Z,16.72
2018-09-10T06:47:34.284Z,16.78
2018-09-10T06:50:37.554Z,16.89
2018-09-10T06:53:40.739Z,17.04
2018-09-10T06:56:44.095Z,17.17
2018-09-10T06:59:48.656Z,17.34
2018-09-10T07:02:52.121Z,17.46
2018-09-10T07:05:55.367Z,17.53
2018-09-10T07:08:58.583Z,17.70
2018-09-10T07:12:01.912Z,17.84
2018-09-10T07:15:05.429Z,17.93
2018-09-10T07:18:08.717Z,18.07
2018-09-10T07:21:12.023Z,18.19
2018-09-10T07:24:15.516Z,18.30
2018-09-10T07:27:19.867Z,18.49
2018-09-10T07:30:23.083Z,18.66
2018-09-10T07:33:26.324Z,18.86
2018-09-10T07:36:29.621Z,19.02
2018-09-10T07:39:32.889Z,19.13
2018-09-10T07:42:36.104Z,19.23
2018-09-10T07:45:39.389Z,19.37
2018-09-10T07:48:42.692Z,19.32
2018-09-10T07:51:46.985Z,19.44
2018-09-10T07:54:50.228Z,19.49
2018-09-10T07:57:53.471Z,19.44
2018-09-10T08:00:56.705Z,19.43
2018-09-10T08:04:00.013Z,19.57
2018-09-10T08:07:03.290Z,19.64
2018-09-10T08:10:06.648Z,19.63
2018-09-10T08:13:09.859Z,19.75
2018-09-10T08:16:13.152Z,19.81
2018-09-10T08:19:17.326Z,19.77
2018-09-10T08:22:20.615Z,19.83
2018-09-10T08:25:23.810Z,20.07
2018-09-10T08:28:27.084Z,20.39
2018-09-10T08:31:30.390Z,20.64
2018-09-10T08:34:33.661Z,20.95
2018-09-10T08:37:36.875Z,21.17
2018-09-10T08:40:40.146Z,21.10
2018-09-10T08:43:43.466Z,21.14
2018-09-10T08:46:48.626Z,21.24
2018-09-10T08:49:51.946Z,21.49
2018-09-10T08:52:55.102Z,21.73
2018-09-10T08:55:58.502Z,21.90
2018-09-10T08:59:01.708Z,21.93
2018-09-10T09:02:04.997Z,21.88
2018-09-10T09:05:08.303Z,21.85
2018-09-10T09:08:11.607Z,21.84
2018-09-10T09:11:14.909Z,22.05
2018-09-10T09:14:19.311Z,22.14
2018-09-10T09:17:22.647Z,22.08
2018-09-10T09:20:25.824Z,22.11
2018-09-10T09:23:29.294Z,22.20
2018-09-10T09:26:32.506Z,22.23
2018-09-10T09:29:35.849Z,22.26
2018-09-10T09:32:41.119Z,22.39
2018-09-10T09:35:49.685Z,22.44
2018-09-10T09:38:59.383Z,22.58
2018-09-10T09:42:08.127Z,22.63
2018-09-10T09:45:17.708Z,22.84
2018-09-10T09:48:21.104Z,22.75
2018-09-10T09:51:24.427Z,22.92
2018-09-10T09:54:27.678Z,23.06
2018-09-10T09:57:31.220Z,23.34
2018-09-10T10:00:40.205Z,23.59
2018-09-10T10:03:48.858Z,23.72
2018-09-10T10:06:52.252Z,23.84
2018-09-10T10:09:57.831Z,24.00
2018-09-10T10:13:01.487Z,24.22
2018-09-10T10:16:04.812Z,24.40
2018-09-10T10:19:08.107Z,24.63
2018-09-10T10:22:11.438Z,24.75
2018-09-10T10:25:14.620Z,24.87
2018-09-10T10:28:18.621Z,24.90
2018-09-10T10:31:21.888Z,25.00
2018-09-10T10:34:25.158Z,25.17
2018-09-10T10:37:28.383Z,25.36
2018-09-10T10:40:31.850Z,25.43
2018-09-10T10:43:35.936Z,25.49
2018-09-10T10:46:40.676Z,25.51
2018-09-10T10:49:43.904Z,25.48
2018-09-10T10:52:47.256Z,25.49
2018-09-10T10:55:50.813Z,25.55
2018-09-10T10:58:54.027Z,25.56
2018-09-10T11:01:57.404Z,25.48
2018-09-10T11:05:00.593Z,25.59
2018-09-10T11:08:04.835Z,25.61
2018-09-10T11:11:07.997Z,25.65
2018-09-10T11:14:12.253Z,25.72
2018-09-10T11:17:15.595Z,25.78
2018-09-10T11:20:19.978Z,25.89
2018-09-10T11:23:23.337Z,26.02
2018-09-10T11:26:26.462Z,26.04
2018-09-10T11:29:29.780Z,26.10
2018-09-10T11:32:33.116Z,26.13
2018-09-10T11:35:36.455Z,26.27
2018-09-10T11:38:40.089Z,26.47
2018-09-10T11:41:43.391Z,26.67
2018-09-10T11:44:46.656Z,26.77
2018-09-10T11:47:49.951Z,26.74
2018-09-10T11:50:53.357Z,26.73
2018-09-10T11:53:57.714Z,26.86
2018-09-10T11:57:00.944Z,27.06
2018-09-10T12:00:08.370Z,27.17
2018-09-10T12:03:11.639Z,27.08
2018-09-10T12:06:14.830Z,26.97
2018-09-10T12:09:18.155Z,26.91
2018-09-10T12:12:21.399Z,27.02
2018-09-10T12:15:24.779Z,27.18
2018-09-10T12:18:29.321Z,27.31
2018-09-10T12:21:32.754Z,27.42
2018-09-10T12:24:36.204Z,27.61
2018-09-10T12:27:39.623Z,27.73
2018-09-10T12:30:43.028Z,27.72
2018-09-10T12:33:46.404Z,27.75
2018-09-10T12:36:50.810Z,27.86
2018-09-10T12:39:54.160Z,27.88
2018-09-10T12:42:58.089Z,27.86
2018-09-10T12:46:01.433Z,28.02
2018-09-10T12:49:04.657Z,28.07
2018-09-10T12:52:07.964Z,28.23
2018-09-10T12:55:11.329Z,28.42
2018-09-10T12:58:14.606Z,28.58
2018-09-10T13:01:17.887Z,28.61
2018-09-10T13:04:21.171Z,28.71
2018-09-10T13:07:24.387Z,28.65
2018-09-10T13:10:28.247Z,28.55
2018-09-10T13:13:31.484Z,28.65
2018-09-10T13:16:34.756Z,28.60
2018-09-10T13:19:37.986Z,28.70
2018-09-10T13:22:41.630Z,28.87
2018-09-10T13:25:44.887Z,28.93
2018-09-10T13:28:49.100Z,29.08
2018-09-10T13:31:52.448Z,29.06
2018-09-10T13:34:55.812Z,29.38
2018-09-10T13:37:59.117Z,29.64
2018-09-10T13:41:02.499Z,29.57
2018-09-10T13:44:05.737Z,29.47
2018-09-10T13:47:09.328Z,29.36
2018-09-10T13:50:12.653Z,29.15
2018-09-10T13:53:15.921Z,29.05
2018-09-10T13:56:20.304Z,29.01
2018-09-10T13:59:23.538Z,29.12
2018-09-10T14:02:26.836Z,29.16
2018-09-10T14:05:31.175Z,29.18
2018-09-10T14:08:34.565Z,29.14
2018-09-10T14:11:38.269Z,29.17
2018-09-10T14:14:41.550Z,29.16
2018-09-10T14:17:44.734Z,29.12
2018-09-10T14:20:48.546Z,29.04
2018-09-10T14:23:51.787Z,28.96
2018-09-10T14:26:55.084Z,28.93
2018-09-10T14:29:58.419Z,28.76
2018-09-10T14:33:01.743Z,28.84
2018-09-10T14:36:05.068Z,29.17
2018-09-10T14:39:08.975Z,29.20
2018-09-10T14:42:12.293Z,29.07
2018-09-10T14:45:15.565Z,28.92
2018-09-10T14:48:19.500Z,29.05
2018-09-10T14:51:22.895Z,29.01
2018-09-10T14:54:26.135Z,28.97
2018-09-10T14:57:29.342Z,28.88
2018-09-10T15:00:32.648Z,28.98
2018-09-10T15:03:35.910Z,29.02
2018-09-10T15:06:40.165Z,29.11
2018-09-10T15:09:43.409Z,29.44
2018-09-10T15:12:48.730Z,29.61
2018-09-10T15:15:52.031Z,29.76
2018-09-10T15:18:55.526Z,29.76
2018-09-10T15:21:58.931Z,29.88
2018-09-10T15:25:04.279Z,30.04
2018-09-10T15:28:07.568Z,29.92
2018-09-10T15:31:10.847Z,29.86
2018-09-10T15:34:14.155Z,29.78
2018-09-10T15:37:17.607Z,29.56
2018-09-10T15:40:21.997Z,29.43
2018-09-10T15:43:25.276Z,29.22
2018-09-10T15:46:28.573Z,29.23
2018-09-10T15:49:31.922Z,29.29
2018-09-10T15:52:35.319Z,29.36
2018-09-10T15:55:38.826Z,29.38
2018-09-10T15:58:43.087Z,29.51
2018-09-10T16:01:46.391Z,29.61
2018-09-10T16:04:49.825Z,29.67
2018-09-10T16:07:53.094Z,29.73
2018-09-10T16:10:56.296Z,29.56
2018-09-10T16:13:59.571Z,29.49
2018-09-10T16:17:02.936Z,29.31
2018-09-10T16:20:06.705Z,29.09
2018-09-10T16:23:10.154Z,29.13
2018-09-10T16:26:13.469Z,29.12
2018-09-10T16:29:16.696Z,29.05
2018-09-10T16:32:20.904Z,28.98
2018-09-10T16:35:24.397Z,28.95
2018-09-10T16:38:27.575Z,28.94
2018-09-10T16:41:30.946Z,28.81
2018-09-10T16:44:35.240Z,28.79
2018-09-10T16:47:38.527Z,28.72
2018-09-10T16:50:41.994Z,28.65
2018-09-10T16:53:45.387Z,28.62
2018-09-10T16:56:49.224Z,28.60
2018-09-10T16:59:53.636Z,28.52
2018-09-10T17:02:57.007Z,28.43
2018-09-10T17:06:00.371Z,28.41
2018-09-10T17:09:06.327Z,28.32
2018-09-10T17:12:09.613Z,28.31
2018-09-10T17:15:12.786Z,28.26
2018-09-10T17:18:16.086Z,28.21
2018-09-10T17:21:20.592Z,28.13
2018-09-10T17:24:23.901Z,28.09
2018-09-10T17:27:27.084Z,28.04
2018-09-10T17:30:30.592Z,27.93
2018-09-10T17:33:33.786Z,27.87
2018-09-10T17:36:37.284Z,27.79
2018-09-10T17:39:40.590Z,27.72
2018-09-10T17:42:43.746Z,27.64
2018-09-10T17:45:46.970Z,27.52
2018-09-10T17:48:51.144Z,27.41
2018-09-10T17:51:54.548Z,27.30
2018-09-10T17:54:57.679Z,27.23
2018-09-10T17:58:02.105Z,27.08
2018-09-10T18:01:07.367Z,26.91
2018-09-10T18:04:10.732Z,26.81
2018-09-10T18:07:14.121Z,26.72
2018-09-10T18:10:17.459Z,26.62
2018-09-10T18:13:20.942Z,26.55
2018-09-10T18:16:24.157Z,26.55
2018-09-10T18:19:27.667Z,26.43
2018-09-10T18:22:31.049Z,26.33
2018-09-10T18:25:34.292Z,26.21
2018-09-10T18:28:37.860Z,26.16
2018-09-10T18:31:41.220Z,26.05
2018-09-10T18:34:44.517Z,26.05
2018-09-10T18:37:47.865Z,26.05
2018-09-10T18:40:51.160Z,25.76
2018-09-10T18:43:55.205Z,25.47
2018-09-10T18:46:58.983Z,25.35
2018-09-10T18:50:02.321Z,25.32
2018-09-10T18:53:06.753Z,25.18
2018-09-10T18:56:10.363Z,25.17
2018-09-10T18:59:13.763Z,25.14
2018-09-10T19:02:16.943Z,25.03
2018-09-10T19:05:20.293Z,25.01
2018-09-10T19:08:23.629Z,25.01
2018-09-10T19:11:27.032Z,24.87
2018-09-10T19:14:31.372Z,24.72
2018-09-10T19:17:35.365Z,24.70
2018-09-10T19:20:38.812Z,24.64
2018-09-10T19:23:42.007Z,24.57
2018-09-10T19:26:45.365Z,24.52
2018-09-10T19:29:48.988Z,24.45
2018-09-10T19:32:52.231Z,24.39
2018-09-10T19:35:55.576Z,24.30
2018-09-10T19:38:58.904Z,24.21
2018-09-10T19:42:02.115Z,24.16
2018-09-10T19:45:06.315Z,24.05
2018-09-10T19:48:09.598Z,23.94
2018-09-10T19:51:12.915Z,23.84
2018-09-10T19:54:16.239Z,23.73
2018-09-10T19:57:19.538Z,23.62
2018-09-10T20:00:22.807Z,23.55
2018-09-10T20:03:26.222Z,23.44
2018-09-10T20:06:29.555Z,23.39
2018-09-10T20:09:32.845Z,23.35
2018-09-10T20:12:36.648Z,23.18
2018-09-10T20:15:40.008Z,23.07
2018-09-10T20:18:43.279Z,22.95
2018-09-10T20:21:46.627Z,22.94
2018-09-10T20:24:49.796Z,22.84
2018-09-10T20:27:52.995Z,22.77
2018-09-10T20:30:56.338Z,22.73
2018-09-10T20:34:04.703Z,22.61
2018-09-10T20:37:08.380Z,22.54
2018-09-10T20:40:11.739Z,22.44
2018-09-10T20:43:15.035Z,22.34
2018-09-10T20:46:18.318Z,22.30
2018-09-10T20:49:21.607Z,22.24
2018-09-10T20:52:24.752Z,22.15
2018-09-10T20:55:28.101Z,22.05
2018-09-10T20:58:31.317Z,22.01
2018-09-10T21:01:34.541Z,21.98
2018-09-10T21:04:38.847Z,21.92
2018-09-10T21:07:42.211Z,21.84
2018-09-10T21:10:45.257Z,21.88
2018-09-10T21:13:48.583Z,21.86
2018-09-10T21:16:51.821Z,21.85
2018-09-10T21:19:55.122Z,21.79
2018-09-10T21:22:58.416Z,21.70
2018-09-10T21:26:01.633Z,21.63
2018-09-10T21:29:04.901Z,21.55
2018-09-10T21:32:09.611Z,21.44
2018-09-10T21:35:12.939Z,21.39
2018-09-10T21:38:16.225Z,21.35
2018-09-10T21:41:19.414Z,21.30
2018-09-10T21:44:22.723Z,21.34
2018-09-10T21:47:26.080Z,21.30
2018-09-10T21:50:29.403Z,21.19
2018-09-10T21:53:32.750Z,21.00
2018-09-10T21:56:36.455Z,20.72
2018-09-10T21:59:39.860Z,20.65
2018-09-10T22:02:43.111Z,20.73
2018-09-10T22:05:49.938Z,20.80
2018-09-10T22:08:53.384Z,20.73
2018-09-10T22:12:03.172Z,20.53
2018-09-10T22:15:07.192Z,20.58
2018-09-10T22:18:10.891Z,20.63
2018-09-10T22:21:14.184Z,20.63
2018-09-10T22:24:17.596Z,20.61
2018-09-10T22:27:20.867Z,20.61
2018-09-10T22:30:24.158Z,20.62
2018-09-10T22:33:27.444Z,20.48
2018-09-10T22:36:30.651Z,20.44
2018-09-10T22:39:33.935Z,20.28
2018-09-10T22:42:38.052Z,20.22
2018-09-10T22:45:41.277Z,20.24
2018-09-10T22:48:44.548Z,20.13
2018-09-10T22:51:47.851Z,20.13
2018-09-10T22:54:51.103Z,19.97
2018-09-10T22:57:54.475Z,19.93
2018-09-10T23:00:57.744Z,19.91
2018-09-10T23:04:00.939Z,19.88
2018-09-10T23:07:04.235Z,19.93
2018-09-10T23:10:08.500Z,19.92
2018-09-10T23:13:11.877Z,19.89
2018-09-10T23:16:15.175Z,19.85
2018-09-10T23:19:18.450Z,19.77
2018-09-10T23:22:21.760Z,19.79
2018-09-10T23:25:25.172Z,19.59
2018-09-10T23:28:28.444Z,19.44
2018-09-10T23:31:31.738Z,19.38
2018-09-10T23:34:34.961Z,19.29
2018-09-10T23:37:38.875Z,19.33
2018-09-10T23:40:42.287Z,19.38
2018-09-10T23:43:46.595Z,19.27
2018-09-10T23:46:49.862Z,19.17
2018-09-10T23:49:53.163Z,19.19
2018-09-10T23:52:56.326Z,18.82
2018-09-10T23:55:59.657Z,18.83
2018-09-10T23:59:02.857Z,18.85
